Time;durP1;ratioP1;P1;durP2;ratioP2;P2;SDS_P1;SDS_P2;PMS_P1;PMS_P2;Temp;Humidity;BMP_temperature;BMP_pressure;BME280_temperature;BME280_humidity;BME280_pressure;Samples;Min_cycle;Max_cycle;Signal;HPM_P1;HPM_P2
2022/05/01 00:02:04;;;;;;;23.85;15.23;;;;;;;8.24;78.41;102397.19;5072436;28;20068;-58
2022/05/01 00:04:30;;;;;;;23.15;14.77;;;;;;;8.25;78.04;102396.94;5072455;28;20044;-58
2022/05/01 00:06:55;;;;;;;22.65;14.27;;;;;;;8.26;78.00;102387.56;5075051;28;20024;-58
2022/05/01 00:09:21;;;;;;;24.25;14.88;;;;;;;8.23;78.52;102384.50;5076692;28;20094;-58
2022/05/01 00:11:46;;;;;;;26.02;15.82;;;;;;;8.23;78.60;102388.06;5076662;28;20596;-58
2022/05/01 00:14:12;;;;;;;26.85;16.17;;;;;;;8.21;78.52;102378.38;5076616;28;20037;-57
2022/05/01 00:16:37;;;;;;;25.40;15.98;;;;;;;8.18;78.78;102388.00;5076220;28;20535;-57
2022/05/01 00:19:02;;;;;;;23.83;15.07;;;;;;;8.12;79.15;102375.25;5076312;28;20025;-57
2022/05/01 00:21:28;;;;;;;24.50;15.32;;;;;;;8.12;79.21;102384.34;5076370;28;20029;-58
2022/05/01 00:23:53;;;;;;;24.10;15.57;;;;;;;8.06;79.70;102382.59;5076349;28;20032;-58
2022/05/01 00:26:18;;;;;;;26.42;15.95;;;;;;;8.09;79.43;102372.97;5076400;28;20036;-58
2022/05/01 00:28:44;;;;;;;25.08;15.82;;;;;;;8.09;79.33;102378.50;5076452;28;20025;-59
2022/05/01 00:31:09;;;;;;;24.65;15.23;;;;;;;8.15;78.92;102384.91;5075960;28;20138;-58
2022/05/01 00:36:27;;;;;;;24.95;16.15;;;;;;;8.17;79.00;102380.00;5076617;28;20043;-58
2022/05/01 00:39:06;;;;;;;24.33;15.00;;;;;;;8.12;78.89;102372.47;5076067;28;20032;-58
2022/05/01 00:41:33;;;;;;;23.15;15.38;;;;;;;8.16;78.99;102378.31;5075984;28;20044;-58
2022/05/01 00:44:09;;;;;;;24.63;15.25;;;;;;;8.21;78.52;102372.88;5075918;28;20454;-58
2022/05/01 00:46:37;;;;;;;24.38;15.35;;;;;;;8.15;78.84;102369.19;5076004;28;20024;-58
2022/05/01 00:49:04;;;;;;;25.27;15.82;;;;;;;8.13;78.85;102365.84;5075707;28;20372;-58
2022/05/01 00:51:33;;;;;;;26.00;15.52;;;;;;;8.13;78.73;102368.63;5076313;28;20033;-58
2022/05/01 00:53:59;;;;;;;25.63;15.90;;;;;;;8.13;79.01;102365.84;5075460;28;20492;-58
2022/05/01 00:56:24;;;;;;;27.75;16.15;;;;;;;8.11;78.67;102368.06;5075795;28;20103;-58
2022/05/01 00:58:50;;;;;;;26.55;16.33;;;;;;;8.08;78.85;102361.09;5075622;28;20020;-58
2022/05/01 01:01:16;;;;;;;24.45;16.55;;;;;;;8.11;78.85;102366.13;5075466;28;20036;-58
2022/05/01 01:03:41;;;;;;;24.50;15.68;;;;;;;8.12;78.49;102366.97;5075877;28;20020;-58
2022/05/01 01:06:06;;;;;;;24.08;15.52;;;;;;;8.14;78.43;102367.53;5075719;28;20042;-58
2022/05/01 01:08:32;;;;;;;25.42;15.68;;;;;;;8.15;78.32;102358.19;5075486;28;20040;-58
2022/05/01 01:10:58;;;;;;;27.35;15.82;;;;;;;8.13;78.56;102360.34;5075380;28;20036;-58
2022/05/01 01:13:27;;;;;;;25.65;16.42;;;;;;;8.08;79.10;102354.75;5075561;28;20036;-58
2022/05/01 01:15:54;;;;;;;26.08;15.82;;;;;;;8.07;78.92;102358.59;5075404;28;20127;-58
2022/05/01 01:18:23;;;;;;;26.40;16.50;;;;;;;8.08;78.83;102363.03;5074855;28;20032;-58
2022/05/01 01:20:48;;;;;;;26.55;16.33;;;;;;;8.06;78.89;102355.03;5075272;28;20024;-58
2022/05/01 01:23:14;;;;;;;24.60;16.25;;;;;;;8.03;79.16;102358.28;5075223;28;20024;-58
2022/05/01 01:25:39;;;;;;;24.40;15.80;;;;;;;8.04;78.81;102359.09;5073986;28;20020;-58
2022/05/01 01:28:07;;;;;;;25.35;15.98;;;;;;;8.05;78.87;102360.78;5075198;28;20413;-58
2022/05/01 01:33:18;;;;;;;24.55;16.20;;;;;;;8.06;78.71;102356.94;5075270;28;20094;-60
2022/05/01 01:35:47;;;;;;;26.00;16.20;;;;;;;8.05;78.80;102356.13;5074920;28;20025;-58
2022/05/01 01:38:12;;;;;;;25.05;15.88;;;;;;;8.09;78.32;102351.75;5074927;28;20483;-59
2022/05/01 01:40:42;;;;;;;24.38;15.85;;;;;;;8.06;78.56;102354.19;5074931;28;20024;-58
2022/05/01 01:43:10;;;;;;;25.05;16.30;;;;;;;8.02;78.62;102350.28;5074734;28;20093;-59
2022/05/01 01:45:35;;;;;;;28.08;16.65;;;;;;;8.04;78.56;102356.34;5075008;28;20061;-58
2022/05/01 01:48:15;;;;;;;25.25;16.77;;;;;;;8.00;78.75;102350.50;5074755;28;20120;-57
2022/05/01 01:50:41;;;;;;;26.80;16.52;;;;;;;8.01;78.68;102349.41;5074698;28;20033;-58
2022/05/01 01:53:09;;;;;;;24.67;16.30;;;;;;;8.01;78.53;102359.63;5074625;28;20036;-58
2022/05/01 01:55:38;;;;;;;27.45;16.90;;;;;;;7.99;78.88;102353.53;5074727;28;20102;-58
2022/05/01 01:58:04;;;;;;;25.67;16.17;;;;;;;7.99;79.09;102354.34;5074662;28;20446;-58
2022/05/01 02:00:29;;;;;;;25.15;17.00;;;;;;;7.95;79.33;102351.25;5074598;28;20501;-58
2022/05/01 02:02:59;;;;;;;28.27;17.35;;;;;;;7.97;79.39;102351.03;5074450;28;20108;-59
2022/05/01 02:05:25;;;;;;;26.17;18.27;;;;;;;7.95;79.51;102350.44;5074458;28;20083;-60
2022/05/01 02:07:51;;;;;;;25.25;16.77;;;;;;;7.95;79.52;102347.69;5074297;28;20063;-58
2022/05/01 02:10:17;;;;;;;26.58;16.90;;;;;;;7.95;79.60;102348.50;5074393;28;20033;-58
2022/05/01 02:12:43;;;;;;;26.33;17.35;;;;;;;7.93;79.81;102349.84;5074449;28;20024;-59
2022/05/01 02:15:08;;;;;;;28.02;18.20;;;;;;;7.94;79.53;102343.25;5074091;28;20036;-58
2022/05/01 02:17:33;;;;;;;24.88;16.67;;;;;;;7.87;79.63;102345.34;5074147;28;20043;-59
2022/05/01 02:19:59;;;;;;;27.60;17.50;;;;;;;7.80;80.48;102343.56;5074042;28;20383;-58
2022/05/01 02:22:24;;;;;;;27.08;17.67;;;;;;;7.77;80.61;102346.00;5074220;28;20061;-59
2022/05/01 02:24:50;;;;;;;27.88;17.27;;;;;;;7.80;80.15;102342.75;5074064;28;20031;-58
2022/05/01 02:27:15;;;;;;;26.88;16.55;;;;;;;7.76;80.30;102342.44;5074171;28;20024;-58
2022/05/01 02:29:42;;;;;;;25.00;16.63;;;;;;;7.76;79.96;102347.09;5072906;28;20066;-58
2022/05/01 02:32:07;;;;;;;26.73;17.02;;;;;;;7.75;80.10;102335.25;5074113;28;20041;-58
2022/05/01 02:34:32;;;;;;;25.88;17.50;;;;;;;7.72;80.25;102337.66;5073782;28;20023;-58
2022/05/01 02:36:58;;;;;;;26.30;16.95;;;;;;;7.73;80.08;102339.34;5074034;28;20025;-59
2022/05/01 02:39:24;;;;;;;25.65;16.73;;;;;;;7.73;80.01;102331.06;5073596;28;20533;-59
2022/05/01 02:41:50;;;;;;;25.25;16.90;;;;;;;7.70;80.08;102326.88;5073905;28;20141;-59
2022/05/01 02:44:16;;;;;;;27.40;18.08;;;;;;;7.70;80.12;102326.88;5073650;28;20025;-58
2022/05/01 02:46:41;;;;;;;26.00;16.58;;;;;;;7.68;79.91;102330.97;5073717;28;20020;-58
2022/05/01 02:49:06;;;;;;;27.38;16.98;;;;;;;7.63;80.07;102324.31;5073902;28;20032;-59
2022/05/01 02:51:32;;;;;;;28.33;18.80;;;;;;;7.58;79.98;102329.72;5073500;28;20077;-59
2022/05/01 02:53:58;;;;;;;28.27;18.83;;;;;;;7.55;80.66;102324.72;5073208;28;20044;-59
2022/05/01 02:56:24;;;;;;;27.30;19.35;;;;;;;7.58;80.42;102326.97;5073400;28;20480;-59
2022/05/01 02:58:49;;;;;;;29.38;20.10;;;;;;;7.55;80.65;102327.50;5073339;28;20112;-59
2022/05/01 03:01:14;;;;;;;30.38;20.35;;;;;;;7.51;80.96;102322.72;5073304;28;20033;-59
2022/05/01 03:03:40;;;;;;;29.48;19.65;;;;;;;7.48;80.86;102327.63;5073397;28;20033;-59
2022/05/01 03:06:05;;;;;;;28.67;18.65;;;;;;;7.48;81.19;102330.41;5073304;28;20032;-59
2022/05/01 03:08:30;;;;;;;27.48;19.08;;;;;;;7.47;81.43;102323.22;5073398;28;20111;-59
2022/05/01 03:10:56;;;;;;;26.90;18.55;;;;;;;7.46;81.07;102323.47;5073224;28;20372;-59
2022/05/01 03:13:21;;;;;;;28.20;18.08;;;;;;;7.49;80.67;102321.06;5073390;28;20032;-59
2022/05/01 03:15:47;;;;;;;28.30;19.05;;;;;;;7.51;80.70;102320.78;5073035;28;20028;-58
2022/05/01 03:23:40;;;;;;;26.80;18.20;;;;;;;7.48;81.14;102322.13;5073697;28;20043;-59
2022/05/01 03:26:05;;;;;;;27.85;18.20;;;;;;;7.47;81.33;102316.84;5073155;28;20111;-59
2022/05/01 03:28:31;;;;;;;25.88;17.45;;;;;;;7.43;81.55;102315.69;5073062;28;20028;-59
2022/05/01 03:30:56;;;;;;;28.85;18.63;;;;;;;7.40;82.17;102307.94;5072884;28;20025;-59
2022/05/01 03:33:22;;;;;;;29.08;18.58;;;;;;;7.41;82.03;102306.84;5073085;28;20029;-59
2022/05/01 03:35:49;;;;;;;28.30;18.27;;;;;;;7.33;82.63;102310.84;5072963;28;20028;-59
2022/05/01 03:38:16;;;;;;;27.98;18.63;;;;;;;7.27;83.29;102307.19;5072973;28;20062;-59
2022/05/01 03:40:47;;;;;;;27.30;17.98;;;;;;;7.24;83.33;102307.66;5072576;28;20051;-59
2022/05/01 03:43:13;;;;;;;28.88;19.17;;;;;;;7.21;83.41;102299.06;5073101;28;20025;-59
2022/05/01 03:45:39;;;;;;;27.90;18.45;;;;;;;7.20;83.29;102298.22;5072735;28;20112;-59
2022/05/01 03:48:04;;;;;;;26.83;17.77;;;;;;;7.24;83.30;102295.81;5073003;28;20052;-59
2022/05/01 03:50:29;;;;;;;28.33;18.45;;;;;;;7.27;83.04;102300.81;5072799;28;20536;-59
2022/05/01 03:52:54;;;;;;;28.85;19.08;;;;;;;7.24;83.31;102302.16;5072719;28;20027;-59
2022/05/01 03:55:20;;;;;;;29.30;18.90;;;;;;;7.25;83.35;102301.09;5072718;28;20121;-59
2022/05/01 03:57:45;;;;;;;28.15;18.10;;;;;;;7.25;83.49;102305.72;5072757;28;20028;-59
2022/05/01 04:00:11;;;;;;;27.83;18.52;;;;;;;7.23;83.39;102305.13;5072777;28;20108;-59
2022/05/01 04:02:42;;;;;;;27.40;18.08;;;;;;;7.23;83.72;102307.91;5072618;28;20025;-59
2022/05/01 04:05:08;;;;;;;27.40;18.35;;;;;;;7.16;84.13;102306.13;5072605;28;20067;-59
2022/05/01 04:07:33;;;;;;;29.00;19.80;;;;;;;7.13;83.96;102303.88;5072671;28;20048;-60
2022/05/01 04:09:58;;;;;;;29.35;19.00;;;;;;;7.12;83.99;102295.88;5072307;28;20034;-59
2022/05/01 04:12:24;;;;;;;30.77;19.65;;;;;;;7.04;84.65;102302.59;5072268;28;20025;-59
2022/05/01 04:14:50;;;;;;;30.08;19.42;;;;;;;7.02;84.72;102308.34;5072341;28;20021;-59
2022/05/01 04:17:15;;;;;;;29.88;19.90;;;;;;;7.03;84.76;102309.22;5072354;28;20031;-59
2022/05/01 04:19:41;;;;;;;30.15;20.20;;;;;;;7.03;85.17;102310.03;5072225;28;20032;-59
2022/05/01 04:22:06;;;;;;;29.80;19.15;;;;;;;7.03;85.13;102306.47;5072360;28;20024;-58
2022/05/01 04:24:32;;;;;;;28.45;19.00;;;;;;;7.01;85.18;102306.69;5072329;28;20025;-58
2022/05/01 04:26:57;;;;;;;28.65;19.42;;;;;;;6.95;85.61;102312.34;5072369;28;20031;-59
2022/05/01 04:29:38;;;;;;;29.02;19.92;;;;;;;6.92;85.88;102310.91;5072140;28;20020;-59
2022/05/01 04:32:05;;;;;;;28.10;19.90;;;;;;;6.87;86.21;102310.81;5072253;28;20082;-58
2022/05/01 04:34:32;;;;;;;27.48;18.90;;;;;;;6.93;85.50;102301.59;5072027;28;20035;-58
2022/05/01 04:36:58;;;;;;;29.70;19.15;;;;;;;6.92;86.03;102299.09;5072122;28;20086;-58
2022/05/01 04:39:23;;;;;;;29.70;20.10;;;;;;;6.90;85.79;102306.75;5072126;28;20025;-59
2022/05/01 04:41:49;;;;;;;29.10;19.58;;;;;;;6.87;86.16;102300.66;5072148;28;20506;-58
2022/05/01 04:44:14;;;;;;;29.50;19.92;;;;;;;6.89;86.21;102307.81;5072139;28;20063;-59
2022/05/01 04:46:39;;;;;;;30.00;19.90;;;;;;;6.88;86.46;102307.00;5072473;28;20372;-59
2022/05/01 04:49:05;;;;;;;30.77;20.33;;;;;;;6.84;86.80;102308.56;5072176;28;20115;-58
2022/05/01 04:51:30;;;;;;;30.58;18.83;;;;;;;6.83;86.68;102310.47;5071789;28;20017;-58
2022/05/01 04:53:55;;;;;;;30.00;19.38;;;;;;;6.85;86.54;102301.97;5075357;28;20024;-59
2022/05/01 04:59:07;;;;;;;31.48;19.25;;;;;;;6.85;87.12;102311.06;5075763;28;20071;-59
2022/05/01 05:01:33;;;;;;;29.95;19.90;;;;;;;6.89;86.62;102325.19;5075555;28;20021;-59
2022/05/01 05:03:59;;;;;;;32.15;20.55;;;;;;;6.90;87.14;102320.50;5075885;28;20047;-59
2022/05/01 05:06:24;;;;;;;30.48;20.52;;;;;;;6.96;86.43;102322.25;5075441;28;20372;-59
2022/05/01 05:11:33;;;;;;;31.67;21.05;;;;;;;6.99;86.56;102328.09;5075404;28;20101;-59
2022/05/01 05:13:58;;;;;;;30.55;19.70;;;;;;;7.05;86.41;102325.47;5075209;28;20112;-59
2022/05/01 05:16:23;;;;;;;31.10;20.08;;;;;;;7.10;85.82;102325.56;5075068;28;20039;-59
2022/05/01 05:18:48;;;;;;;31.98;21.02;;;;;;;7.05;86.00;102322.72;5074964;28;20489;-59
2022/05/01 05:21:14;;;;;;;30.95;21.15;;;;;;;6.98;86.67;102322.84;5075136;28;20044;-59
2022/05/01 05:23:39;;;;;;;31.95;21.17;;;;;;;6.96;86.76;102325.88;5075277;28;20455;-59
2022/05/01 05:26:04;;;;;;;30.75;20.48;;;;;;;6.98;86.66;102331.09;5074978;28;20060;-59
2022/05/01 05:28:29;;;;;;;31.67;20.75;;;;;;;6.97;86.85;102333.03;5075151;28;20036;-59
2022/05/01 05:30:55;;;;;;;31.70;21.90;;;;;;;6.98;86.53;102328.34;5074760;28;20355;-59
2022/05/01 05:33:20;;;;;;;32.25;21.58;;;;;;;6.98;86.75;102333.88;5074976;28;20039;-59
2022/05/01 05:35:46;;;;;;;30.83;20.92;;;;;;;7.02;86.18;102337.81;5074910;28;20025;-59
2022/05/01 05:38:12;;;;;;;32.05;20.90;;;;;;;7.10;86.00;102339.31;5074925;28;20519;-59
2022/05/01 05:40:38;;;;;;;31.42;21.20;;;;;;;7.18;85.77;102342.50;5074753;28;20033;-59
2022/05/01 05:43:04;;;;;;;31.15;20.85;;;;;;;7.26;85.54;102340.44;5074678;28;20107;-59
2022/05/01 05:45:29;;;;;;;31.02;21.20;;;;;;;7.27;85.44;102340.22;5074872;28;20112;-58
2022/05/01 05:47:54;;;;;;;33.15;21.25;;;;;;;7.28;85.11;102330.03;5074469;28;20403;-59
2022/05/01 05:50:20;;;;;;;31.98;22.13;;;;;;;7.31;85.41;102340.56;5074621;28;20402;-59
2022/05/01 05:52:45;;;;;;;31.27;20.63;;;;;;;7.38;84.98;102341.22;5074710;28;20028;-59
2022/05/01 05:55:10;;;;;;;32.97;21.92;;;;;;;7.38;85.10;102349.47;5074370;28;20048;-59
2022/05/01 05:57:35;;;;;;;33.50;22.80;;;;;;;7.38;85.41;102343.13;5074427;28;20424;-59
2022/05/01 06:00:01;;;;;;;34.65;23.50;;;;;;;7.42;85.42;102342.38;5074172;28;20064;-59
2022/05/01 06:02:26;;;;;;;32.00;22.48;;;;;;;7.48;84.61;102346.06;5074239;28;20464;-59
2022/05/01 06:04:52;;;;;;;33.88;22.65;;;;;;;7.59;84.17;102347.91;5074258;28;20023;-59
2022/05/01 06:07:17;;;;;;;32.20;22.50;;;;;;;7.62;84.12;102352.09;5074484;28;20060;-59
2022/05/01 06:09:42;;;;;;;34.50;23.52;;;;;;;7.60;84.16;102346.84;5074327;28;20051;-59
2022/05/01 06:12:09;;;;;;;34.17;23.35;;;;;;;7.67;84.15;102354.09;5074199;28;20028;-59
2022/05/01 06:14:35;;;;;;;33.22;22.27;;;;;;;7.76;83.95;102347.94;5073934;28;20103;-59
2022/05/01 06:17:00;;;;;;;34.75;23.42;;;;;;;7.86;83.42;102350.00;5074038;28;20552;-59
2022/05/01 06:19:25;;;;;;;33.92;22.80;;;;;;;7.97;82.74;102351.03;5074125;28;20425;-59
2022/05/01 06:21:50;;;;;;;34.33;23.35;;;;;;;8.07;82.82;102358.59;5074070;28;20057;-59
2022/05/01 06:24:16;;;;;;;32.45;22.88;;;;;;;8.06;82.33;102357.78;5074087;28;20054;-59
2022/05/01 06:26:41;;;;;;;32.83;22.58;;;;;;;8.05;82.12;102358.88;5073787;28;20025;-59
2022/05/01 06:29:06;;;;;;;32.28;22.10;;;;;;;8.00;82.23;102357.94;5074254;28;20111;-59
2022/05/01 06:31:32;;;;;;;31.80;22.42;;;;;;;7.97;82.68;102354.59;5073570;28;20031;-59
2022/05/01 06:33:57;;;;;;;34.85;23.23;;;;;;;8.03;82.36;102360.22;5073984;28;20032;-59
2022/05/01 06:36:23;;;;;;;32.17;22.50;;;;;;;8.08;82.25;102360.28;5072386;28;20433;-59
2022/05/01 06:38:48;;;;;;;33.25;22.05;;;;;;;8.18;81.80;102356.84;5073692;28;20123;-59
2022/05/01 06:41:14;;;;;;;33.60;21.23;;;;;;;8.25;81.76;102363.84;5073541;28;20478;-59
2022/05/01 06:43:40;;;;;;;33.00;22.05;;;;;;;8.33;81.36;102362.59;5073441;28;20460;-59
2022/05/01 06:46:05;;;;;;;31.98;21.50;;;;;;;8.46;81.09;102369.66;5073334;28;20056;-59
2022/05/01 06:48:30;;;;;;;33.67;22.13;;;;;;;8.66;80.28;102368.31;5073369;28;20029;-59
2022/05/01 06:50:56;;;;;;;31.92;21.73;;;;;;;8.77;79.01;102372.88;5073363;28;20043;-59
2022/05/01 06:53:21;;;;;;;33.63;22.55;;;;;;;8.83;78.83;102371.00;5073056;28;20372;-59
2022/05/01 06:55:48;;;;;;;31.52;21.30;;;;;;;8.91;78.34;102365.03;5073487;28;20145;-59
2022/05/01 06:58:13;;;;;;;31.65;22.30;;;;;;;9.00;77.76;102366.25;5073083;28;20025;-59
2022/05/01 07:00:38;;;;;;;31.77;21.58;;;;;;;9.14;77.37;102357.56;5073146;28;20032;-59
2022/05/01 07:03:04;;;;;;;32.70;22.23;;;;;;;9.15;77.00;102364.75;5073340;28;20028;-59
2022/05/01 07:05:30;;;;;;;30.08;20.55;;;;;;;9.24;76.50;102354.09;5073174;28;20045;-59
2022/05/01 07:07:55;;;;;;;32.75;22.35;;;;;;;9.36;76.25;102357.50;5072918;28;20021;-59
2022/05/01 07:10:22;;;;;;;32.88;22.13;;;;;;;9.49;75.91;102357.09;5073084;28;20032;-59
2022/05/01 07:12:47;;;;;;;31.73;21.45;;;;;;;9.57;75.31;102363.22;5072923;28;20110;-59
2022/05/01 07:15:13;;;;;;;33.45;22.40;;;;;;;9.71;75.09;102363.63;5072519;28;20024;-60
2022/05/01 07:17:39;;;;;;;32.65;21.88;;;;;;;9.89;74.76;102357.69;5072868;28;20467;-59
2022/05/01 07:20:05;;;;;;;32.17;21.42;;;;;;;9.98;73.79;102361.63;5071578;28;20035;-59
2022/05/01 07:22:30;;;;;;;32.33;22.23;;;;;;;10.00;73.10;102369.69;5072926;28;20440;-59
2022/05/01 07:24:56;;;;;;;30.90;21.48;;;;;;;10.00;73.27;102364.16;5072698;28;20081;-59
2022/05/01 07:27:22;;;;;;;32.05;20.85;;;;;;;10.10;72.86;102361.47;5072723;28;20032;-59
2022/05/01 07:29:47;;;;;;;28.85;19.98;;;;;;;10.22;71.90;102360.41;5072646;28;20052;-59
2022/05/01 07:32:12;;;;;;;30.52;20.92;;;;;;;10.30;71.26;102362.69;5072941;28;20074;-59
2022/05/01 07:34:38;;;;;;;31.42;20.75;;;;;;;10.36;71.66;102374.63;5072523;28;20028;-59
2022/05/01 07:37:04;;;;;;;32.78;21.67;;;;;;;10.40;70.12;102365.53;5072652;28;20118;-59
2022/05/01 07:39:30;;;;;;;30.10;20.55;;;;;;;10.46;70.77;102366.41;5072561;28;20029;-59
2022/05/01 07:41:55;;;;;;;30.58;20.60;;;;;;;10.49;69.80;102363.13;5072606;28;20039;-59
2022/05/01 07:44:20;;;;;;;29.83;20.33;;;;;;;10.72;69.86;102364.63;5072483;28;20029;-58
2022/05/01 07:46:46;;;;;;;29.48;19.50;;;;;;;10.83;68.01;102367.44;5072242;28;20459;-59
2022/05/01 07:49:11;;;;;;;28.33;18.65;;;;;;;10.84;67.61;102364.38;5072658;28;20024;-59
2022/05/01 07:51:37;;;;;;;28.65;19.85;;;;;;;10.87;67.85;102368.53;5072505;28;20077;-59
2022/05/01 07:54:04;;;;;;;28.17;18.35;;;;;;;10.95;67.47;102372.72;5072427;28;20037;-59
2022/05/01 07:56:31;;;;;;;26.77;18.13;;;;;;;11.03;66.35;102373.03;5072437;28;20575;-59
2022/05/01 07:58:56;;;;;;;27.98;17.63;;;;;;;11.01;66.22;102368.88;5072246;28;20031;-59
2022/05/01 08:01:21;;;;;;;30.92;19.67;;;;;;;11.02;67.26;102370.53;5072523;28;20021;-59
2022/05/01 08:06:32;;;;;;;27.58;18.23;;;;;;;11.16;66.55;102365.31;5072657;28;20058;-59
2022/05/01 08:08:57;;;;;;;29.08;18.30;;;;;;;11.21;65.94;102363.38;5072277;28;20123;-59
2022/05/01 08:11:23;;;;;;;27.60;17.67;;;;;;;11.22;65.86;102362.28;5072246;28;20021;-57
2022/05/01 08:13:48;;;;;;;26.02;17.33;;;;;;;11.23;65.16;102365.91;5072169;28;20037;-59
2022/05/01 08:16:14;;;;;;;30.05;17.85;;;;;;;11.01;64.67;102357.78;5072406;28;20460;-59
2022/05/01 08:21:23;;;;;;;;;;;;;;;11.07;66.00;102365.84;5072888;28;20525;-58
2022/05/01 08:23:49;;;;;;;28.05;18.33;;;;;;;10.99;65.10;102358.06;5072124;28;19969;-59
2022/05/01 08:26:17;;;;;;;26.45;17.48;;;;;;;11.00;64.43;102364.44;5070927;28;20125;-59
2022/05/01 08:28:43;;;;;;;25.48;16.90;;;;;;;10.97;64.30;102357.50;5076059;28;20492;-58
2022/05/01 08:31:09;;;;;;;25.92;17.15;;;;;;;11.01;64.26;102358.63;5076009;28;20452;-59
2022/05/01 08:33:36;;;;;;;26.60;16.98;;;;;;;11.01;63.46;102347.56;5076056;28;20036;-58
2022/05/01 08:36:03;;;;;;;25.65;16.20;;;;;;;11.09;62.99;102360.06;5076109;28;20036;-58
2022/05/01 08:38:29;;;;;;;26.60;16.42;;;;;;;11.05;62.97;102350.59;5075646;28;20471;-58
2022/05/01 08:40:55;;;;;;;27.27;17.70;;;;;;;11.28;63.99;102352.06;5075981;28;20509;-58
2022/05/01 08:43:22;;;;;;;27.10;16.50;;;;;;;11.60;62.61;102352.91;5075696;28;20024;-58
2022/05/01 08:46:03;;;;;;;25.05;16.95;;;;;;;11.63;61.33;102349.59;5075423;28;20033;-59
2022/05/01 08:48:52;;;;;;;26.67;16.40;;;;;;;11.58;60.87;102342.13;5075758;28;20058;-59
2022/05/01 08:51:18;;;;;;;25.42;15.88;;;;;;;11.95;60.92;102340.19;5075539;28;20438;-59
2022/05/01 08:53:45;;;;;;;25.08;15.90;;;;;;;12.06;58.44;102341.03;5075465;28;20039;-59
2022/05/01 08:56:10;;;;;;;24.50;14.98;;;;;;;12.32;59.38;102336.25;5075725;28;20060;-59
2022/05/01 08:58:40;;;;;;;24.42;14.05;;;;;;;12.38;56.06;102328.72;5075489;28;20121;-59
2022/05/01 09:01:07;;;;;;;23.52;12.73;;;;;;;12.48;53.83;102335.09;5075617;28;20459;-59
2022/05/01 09:03:33;;;;;;;25.45;14.38;;;;;;;12.51;54.28;102330.09;5076367;28;20039;-59
2022/05/01 09:05:59;;;;;;;24.08;14.00;;;;;;;12.74;54.89;102336.94;5075637;28;20079;-59
2022/05/01 09:08:24;;;;;;;23.70;14.50;;;;;;;12.95;54.83;102335.72;5075614;28;20024;-59
2022/05/01 09:10:50;;;;;;;24.33;13.02;;;;;;;12.97;52.27;102338.22;5075410;28;20025;-59
2022/05/01 09:13:16;;;;;;;24.02;13.73;;;;;;;13.20;52.69;102335.84;5075498;28;20538;-59
2022/05/01 09:15:45;;;;;;;24.17;14.27;;;;;;;13.25;53.05;102331.09;5075257;28;20025;-59
2022/05/01 09:18:11;;;;;;;22.67;13.60;;;;;;;13.64;52.46;102331.41;5074998;28;20032;-59
2022/05/01 09:20:57;;;;;;;22.30;13.18;;;;;;;13.79;50.47;102336.00;5075391;28;20027;-59
2022/05/01 09:23:43;;;;;;;22.35;12.50;;;;;;;13.57;49.26;102327.00;5075218;28;20028;-59
2022/05/01 09:26:10;;;;;;;20.60;11.07;;;;;;;13.71;47.48;102335.50;5075245;28;20035;-59
2022/05/01 09:28:49;;;;;;;19.90;10.25;;;;;;;13.81;46.28;102329.00;5075144;28;20483;-58
2022/05/01 09:31:14;;;;;;;19.80;11.18;;;;;;;13.86;46.57;102328.13;5075104;28;20040;-59
2022/05/01 09:33:39;;;;;;;21.60;11.35;;;;;;;14.09;47.08;102332.09;5075085;28;20025;-58
2022/05/01 09:36:05;;;;;;;20.02;11.27;;;;;;;14.28;45.45;102332.19;5075271;28;20464;-58
2022/05/01 09:38:30;;;;;;;19.83;10.93;;;;;;;14.40;45.04;102333.72;5074606;28;20060;-59
2022/05/01 09:41:00;;;;;;;20.23;11.15;;;;;;;14.17;44.55;102337.00;5074791;28;20036;-58
2022/05/01 09:43:34;;;;;;;19.42;10.70;;;;;;;14.37;45.56;102325.97;5075033;28;20059;-59
2022/05/01 09:46:22;;;;;;;18.92;10.90;;;;;;;14.49;44.92;102335.56;5073532;28;20024;-58
2022/05/01 09:49:08;;;;;;;21.27;11.32;;;;;;;14.32;44.77;102338.00;5074564;28;20078;-59
2022/05/01 09:51:35;;;;;;;19.92;11.45;;;;;;;14.13;44.54;102324.81;5074574;28;20060;-58
2022/05/01 09:54:03;;;;;;;20.00;11.10;;;;;;;14.11;44.10;102331.81;5074361;28;20060;-58
2022/05/01 09:56:41;;;;;;;19.17;11.38;;;;;;;14.16;45.49;102328.97;5074576;28;20084;-58
2022/05/01 09:59:07;;;;;;;19.83;10.95;;;;;;;14.34;45.36;102333.78;5074395;28;20028;-59
2022/05/01 10:01:32;;;;;;;20.88;11.20;;;;;;;14.41;44.65;102333.44;5074589;28;20035;-58
2022/05/01 10:04:00;;;;;;;20.42;10.40;;;;;;;14.34;44.59;102331.00;5074179;28;20024;-58
2022/05/01 10:06:29;;;;;;;19.50;11.18;;;;;;;14.22;44.27;102324.19;5074349;28;20075;-58
2022/05/01 10:08:55;;;;;;;19.05;10.80;;;;;;;14.15;44.91;102328.16;5074340;28;20032;-58
2022/05/01 10:11:23;;;;;;;21.02;11.60;;;;;;;13.92;44.72;102331.72;5074164;28;20158;-58
2022/05/01 10:13:49;;;;;;;21.75;12.00;;;;;;;13.58;44.32;102333.38;5074126;28;20033;-59
2022/05/01 10:16:17;;;;;;;20.27;11.38;;;;;;;13.66;45.44;102329.97;5074078;28;20024;-58
2022/05/01 10:18:44;;;;;;;20.00;12.10;;;;;;;13.66;45.45;102329.97;5073875;28;20028;-58
2022/05/01 10:21:11;;;;;;;20.98;11.15;;;;;;;13.63;45.44;102325.03;5073640;28;20028;-58
2022/05/01 10:23:37;;;;;;;21.00;11.55;;;;;;;13.59;46.51;102323.09;5074224;28;20096;-58
2022/05/01 10:26:24;;;;;;;21.20;11.30;;;;;;;13.57;47.16;102323.38;5073971;28;20413;-58
2022/05/01 10:28:59;;;;;;;20.80;11.15;;;;;;;13.52;47.42;102335.38;5073969;28;20028;-58
2022/05/01 10:34:49;;;;;;;20.33;10.75;;;;;;;13.88;46.29;102320.34;5073854;28;20122;-58
2022/05/01 10:37:51;;;;;;;21.23;11.45;;;;;;;14.15;46.02;102319.81;5073584;28;20033;-58
2022/05/01 10:40:17;;;;;;;20.80;10.77;;;;;;;14.28;45.37;102311.84;5073629;28;20048;-58
2022/05/01 10:42:45;;;;;;;19.40;10.63;;;;;;;14.23;44.57;102304.38;5073344;28;20031;-58
2022/05/01 10:45:23;;;;;;;21.30;11.02;;;;;;;14.48;45.66;102299.66;5073507;28;20024;-58
2022/05/01 10:47:52;;;;;;;20.67;10.98;;;;;;;14.70;43.50;102307.50;5073255;28;20040;-60
2022/05/01 10:50:26;;;;;;;19.38;10.70;;;;;;;14.73;43.92;102306.06;5071401;28;20174;-58
2022/05/01 10:53:04;;;;;;;;;;;;;;;14.69;44.32;102308.63;5073918;28;20025;-58
2022/05/01 10:55:52;;;;;;;20.05;11.02;;;;;;;14.58;45.10;102302.31;5073298;28;19961;-58
2022/05/01 10:58:30;;;;;;;20.65;10.82;;;;;;;14.51;43.94;102293.47;5073039;28;20064;-57
2022/05/01 11:00:56;;;;;;;19.40;10.68;;;;;;;14.72;43.40;102296.03;5073365;28;20059;-58
2022/05/01 11:03:32;;;;;;;20.63;10.43;;;;;;;14.92;42.91;102281.00;5073130;28;20028;-58
2022/05/01 11:06:04;;;;;;;20.33;10.85;;;;;;;15.23;42.86;102297.25;5073210;28;20029;-58
2022/05/01 11:08:37;;;;;;;22.17;11.00;;;;;;;15.42;42.56;102281.34;5072778;28;20107;-58
2022/05/01 11:11:05;;;;;;;20.27;11.07;;;;;;;15.52;40.85;102283.13;5071932;28;20072;-58
2022/05/01 11:13:40;;;;;;;22.58;11.73;;;;;;;15.22;40.94;102282.50;5072759;28;20369;-58
2022/05/01 11:16:09;;;;;;;22.23;10.70;;;;;;;15.02;41.21;102277.22;5071749;28;20383;-59
2022/05/01 11:18:39;;;;;;;21.05;10.73;;;;;;;15.40;41.02;102277.19;5072611;28;20067;-59
2022/05/01 11:21:19;;;;;;;21.65;10.98;;;;;;;15.66;41.84;102273.97;5072742;28;20020;-58
2022/05/01 11:23:45;;;;;;;20.88;10.93;;;;;;;15.56;39.50;102269.41;5072665;28;20082;-58
2022/05/01 11:26:15;;;;;;;20.67;10.90;;;;;;;15.49;40.53;102264.22;5071416;28;20029;-58
2022/05/01 11:28:54;;;;;;;22.27;11.98;;;;;;;15.53;39.87;102270.00;5072681;28;20035;-58
2022/05/01 11:31:38;;;;;;;20.08;11.55;;;;;;;15.79;41.27;102259.22;5072728;28;20472;-59
2022/05/01 11:34:32;;;;;;;19.80;10.77;;;;;;;16.22;41.12;102250.59;5072590;28;20024;-58
2022/05/01 11:36:57;;;;;;;20.80;10.90;;;;;;;15.99;38.07;102251.63;5072850;28;20036;-58
2022/05/01 11:39:41;;;;;;;21.47;11.10;;;;;;;16.06;39.21;102240.88;5072737;28;20036;-57
2022/05/01 11:42:29;;;;;;;19.80;10.98;;;;;;;16.25;40.40;102237.16;5072741;28;20033;-57